Eduardo Fuentes

Chefscout - Leganés
3 Dez 2028
Sonntag
Verarbeitung

Persönlichkeit

Anpassungsfähigkeit (6) Ehrgeiz (11) Kontroverse (16) Loyalität (13) Druck (2) Professionalität (19) Fairness (14) Temperament (13)

Profil

Trainerstil Demokratisch
Lizenz Kontinentale A
Entschlossenheit 6
Menschenführung 13
Motivation 7
Disziplin 12
Arbeitszufriedenheit
100%
Ermüdung
0%
Rolle Chefscout
Gehalt 42.6K p/W
Vertrag 14.03.2029

Leistung

Verhalten Gut
Trainingseffektivität
52%
Spielerentwicklung
60%
Verletzungsprävention
30%
Taktische Umsetzung
55%

Letzte Ereignisse

Nahm an einer Scouting-Besprechung teil jetzt
Empfahl ein Transferziel jetzt
Sprach sich gegen ein Transferziel aus jetzt
Empfahl ein Transferziel jetzt
Sprach sich gegen ein Transferziel aus 7T her
Empfahl ein Transferziel 7T her
Nahm an einer Scouting-Besprechung teil 7T her
Spiel beobachtet 7T her

Aktuell beobachtet

109
Spieler Verein Status Fähigkeit Vertrauen Beobachtet Zuletzt beobachtet Letzte Stimme
Jorge Delgado Cultural Leonesa Abgelehnt 111 / 112 72% 1 07.08.2028 Ablehnen
Tyler Fletcher Rotherham United Aktiv 113 / 116 40% 3 14.06.2028 -
Roberto Medina La Equidad Verhandlung 100 / 112 40% 1 14.06.2028 -
Simone Suppa Virtus Verona Aktiv 92 / 94 40% 1 14.06.2028 -
Mateo Faure BATE Aktiv 100 / 88 40% 1 13.06.2028 -
Anderson Acevedo Bogota Aktiv 94 / 96 40% 1 13.06.2028 -
Jan Bürger Northampton Town Aktiv 123 / 120 40% 4 11.06.2028 -
Aytor Herrera Mineros de Guayana Verhandlung 76 / 101 40% 1 11.06.2028 -
Thijs Kraaijeveld USM Alger Aktiv 126 / 118 40% 2 10.06.2028 -
Federico Matarán Giana Erminio Aktiv 105 / 107 40% 1 10.06.2028 -
Andrey Ivlev Nizhniy Novgorod Aktiv 120 / 116 40% 1 08.06.2028 -
Daniel Banjaqui Benfica Aktiv 129 / 130 40% 1 07.06.2028 -
Lucas Camejo River Plate Aktiv 85 / 98 40% 1 02.06.2028 -
Lander Astiazarán Real Sociedad Abgelehnt 113 / 120 72% 1 31.01.2028 Ablehnen
Matvey Bardachev Zenit Aktiv 114 / 117 40% 1 17.01.2028 -
Esquerdinha Notts County Aktiv 125 / 125 40% 1 17.01.2028 -
Mao Hosoya Santos Abgelehnt 134 / 135 67% 1 01.01.2028 Ablehnen
Toni Fruk Talleres Abgelehnt 132 / 133 89% 1 01.01.2028 Ablehnen
Nicolás Ibáñez Cruz Azul Aktiv 134 / 134 66% 1 01.01.2028 Befürworten
David Damboama El-Kanemi Warriors Aktiv 88 / 92 40% 1 31.12.2027 -
Joel Ezra Enyimba Aktiv 101 / 108 40% 1 31.12.2027 -
Izan Merino Málaga Aktiv 118 / 123 40% 2 02.06.2027 -
Jon Garro Real Sociedad Aktiv 83 / 88 67% 4 02.06.2027 Ablehnen
Pedro de la Vega Columbus Crew Abgelehnt 133 / 134 66% 1 01.06.2027 Ablehnen
Jonathan Dubasin Osasuna Aktiv 150 / 151 40% 7 30.05.2027 -
Omar Campos Cruz Azul Aktiv 116 / 127 40% 2 30.05.2027 -
Derensili Sanches Fernandes Huddersfield Town Aktiv 125 / 125 40% 3 30.05.2027 -
Joe Gelhardt Hull City Aktiv 140 / 132 40% 4 29.05.2027 -
Milan van Ewijk Coventry City Aktiv 128 / 132 40% 1 27.05.2027 -
Raúl Moro Osasuna Aktiv 140 / 148 40% 2 26.05.2027 -
Lucas Høgsberg RC Strasbourg Aktiv 138 / 142 40% 2 26.05.2027 -
Jason Knight Bristol City Aktiv 131 / 124 40% 3 26.05.2027 -
Jack Rudoni Coventry City Aktiv 141 / 128 40% 2 24.05.2027 -
Finn Azaz Southampton Aktiv 137 / 130 40% 3 23.05.2027 -
Mohamed-Ali Cho Hull City Aktiv 136 / 134 40% 5 23.05.2027 -
David Larrubia Málaga Aktiv 140 / 124 40% 7 20.05.2027 -
Tyrese Campbell Sheffield United Aktiv 132 / 121 40% 2 20.05.2027 -
Giacomo Raspadori Atalanta Aktiv 147 / 148 40% 4 19.05.2027 -
Kazunari Kita Real Sociedad Aktiv 97 / 105 67% 5 19.05.2027 Beobachten
Ilyas Ansah Hull City Aktiv 126 / 131 40% 1 19.05.2027 -
Jenson Jones Walsall Aktiv 99 / 93 40% 2 18.05.2027 -
Matt O'Riley Brighton Aktiv 151 / 141 40% 3 17.05.2027 -
Max Bird Birmingham Aktiv 135 / 125 40% 1 15.05.2027 -
Alex Scott Bournemouth Aktiv 148 / 145 40% 2 14.05.2027 -
Couhaib Driouech Celta Aktiv 141 / 137 40% 2 13.05.2027 -
Ilaix Moriba Celta Aktiv 147 / 144 40% 1 12.05.2027 -
Erik Lira Cruz Azul Aktiv 140 / 128 40% 2 11.05.2027 -
Abel Ruiz Girona Aktiv 130 / 134 40% 7 07.05.2027 -
Andre Brooks Sheffield United Aktiv 122 / 132 40% 3 07.05.2027 -
Lucas Bergvall Tottenham Aktiv 145 / 145 40% 2 05.05.2027 -
Charlie Gray Fleetwood Town Aktiv 91 / 100 40% 2 04.05.2027 -
Miguel Figueiredo Benfica Aktiv 114 / 117 40% 3 04.05.2027 -
Riley Owen Stevenage Aktiv 109 / 100 40% 1 01.05.2027 -
Sascha Britschgi AC Milan Aktiv 116 / 120 40% 1 29.04.2027 -
Scott Twine Bristol City Aktiv 125 / 122 40% 1 27.04.2027 -
Hugo Álvarez Celta Aktiv 141 / 153 40% 2 25.04.2027 -
Diego López Valencia Aktiv 144 / 145 40% 5 24.04.2027 -
Brian Gutiérrez Guadalajara Aktiv 121 / 143 40% 4 23.04.2027 -
Yussif Saidu Zaragoza Aktiv 119 / 127 40% 1 22.04.2027 -
Fidel Ambríz Monterrey Aktiv 131 / 140 40% 2 20.04.2027 -
Andrés Martín Racing Santander Aktiv 135 / 135 40% 4 14.04.2027 -
Gaspar Gijón Aktiv 147 / 143 40% 4 13.04.2027 -
Óscar Aranda Getafe Aktiv 138 / 135 40% 1 10.04.2027 -
Omar El Hilali Espanyol Aktiv 144 / 157 40% 2 08.04.2027 -
Cheveyo Tsawa Club Brugge Aktiv 109 / 125 40% 1 05.04.2027 -
Tiago Freitas Benfica Aktiv 107 / 113 40% 1 04.04.2027 -
Yusi Alavés Abgelehnt 122 / 139 40% 4 31.03.2027 Ablehnen
Mario Soriano Deportivo La Coruña Aktiv 140 / 137 40% 1 31.03.2027 -
James Bacca La Equidad Aktiv 129 / 138 40% 1 31.03.2027 -
Nicolás Castro Toluca Aktiv 127 / 125 40% 1 29.03.2027 -
Bongani Zungu Ajax Cape Town Aktiv 116 / 133 40% 1 25.03.2027 -
Richard Ledezma Guadalajara Aktiv 130 / 127 40% 3 24.03.2027 -
Tyrhys Dolan Espanyol Aktiv 145 / 141 40% 2 24.03.2027 -
Jackson Muleka Konyaspor Aktiv 123 / 126 40% 1 19.03.2027 -
Sorriso Famalicao Aktiv 139 / 132 40% 2 17.03.2027 -
Enzo Le Fée Sunderland Aktiv 143 / 136 40% 1 17.03.2027 -
Nico Melamed Almería Aktiv 138 / 130 40% 1 15.03.2027 -
Wilson Isidor Sunderland Aktiv 135 / 139 40% 1 10.03.2027 -
Caleb Yirenkyi Coventry City Aktiv 130 / 135 40% 4 02.03.2027 -
Urko González Espanyol Aktiv 142 / 147 40% 1 02.03.2027 -
Aimar Osasuna Aktiv 144 / 153 40% 2 22.02.2027 -
Peter Federico Gornik Zabrze Aktiv 124 / 118 40% 1 16.02.2027 -
Jeremy Márquez Cruz Azul Aktiv 141 / 124 40% 1 16.02.2027 -
Marcelo Allende Mamelodi Sundowns Aktiv 130 / 121 40% 3 09.02.2027 -
Petar Stanić Ludogorets Aktiv 147 / 142 40% 1 09.02.2027 -
Chemsdine Talbi Sunderland Aktiv 142 / 149 40% 1 05.02.2027 -
Ilias Sebaoui Sint-Truiden Aktiv 122 / 122 40% 1 02.02.2027 -
Sampson Dweh Mallorca Aktiv 133 / 134 66% 1 01.01.2027 Befürworten
Ignacio Perruzzi San Lorenzo Aktiv 122 / 130 40% 6 30.12.2026 -
Agustín Medina Lanús Aktiv 117 / 117 40% 4 30.12.2026 -
Kyriani Sabbe Club Brugge Aktiv 121 / 119 40% 1 25.12.2026 -
Lautaro Vargas Unión de Santa Fe Aktiv 133 / 116 40% 4 24.12.2026 -
Nico O'Reilly Manchester City Abgelehnt 157 / 156 40% 3 23.12.2026 Ablehnen
James Dornelly Peterborough United Aktiv 94 / 109 40% 3 23.12.2026 -
Alan Forneris Racing Club Aktiv 115 / 113 40% 2 21.12.2026 -
Facundo Di Biasi Gimnasia La Plata Aktiv 117 / 116 40% 3 16.12.2026 -
Kees Smit AZ Aktiv 142 / 149 40% 1 13.12.2026 -
Nahuel Arias San Lorenzo Aktiv 105 / 113 40% 1 23.11.2026 -
Jonathan Pérez Cruz Azul Aktiv 102 / 98 40% 1 18.11.2026 -
Ian Garguez Palestino Aktiv 112 / 113 40% 1 04.11.2026 -
Morrison Agyemang Charlotte Football Club Aktiv 122 / 111 40% 1 11.10.2026 -
Philippe Ndinga Philadelphia Union Aktiv 104 / 121 40% 1 05.10.2026 -
Juan Fernándes Pinto Almagro Aktiv 94 / 120 40% 1 05.10.2026 -
Ignacio Fernández Boston River Aktiv 75 / 85 40% 1 11.09.2026 -
Nahuel Leivas Montevideo City Torque Aktiv 90 / 105 40% 2 08.09.2026 -
Santiago Fernández Talleres Aktiv 122 / 113 40% 2 07.09.2026 -
Theo Córdoba Abgelehnt 115 / 116 65% 1 31.08.2026 Ablehnen
Juan Morán Godoy Cruz Aktiv 91 / 120 40% 1 24.08.2026 -
Giorgi Mamardashvili Liverpool Aktiv 154 / 161 40% 1 01.08.2026 -